createdAt,value
2022-08-25T00:00:22.718Z,8.02
2022-08-25T00:02:55.223Z,7.53
2022-08-25T00:05:33.482Z,10.50
2022-08-25T00:08:07.438Z,13.38
2022-08-25T00:10:41.351Z,8.90
2022-08-25T00:18:25.767Z,12.23
2022-08-25T00:20:54.907Z,14.50
2022-08-25T00:23:24.203Z,7.03
2022-08-25T00:25:53.732Z,12.85
2022-08-25T00:28:22.948Z,15.40
2022-08-25T00:30:54.914Z,14.63
2022-08-25T00:33:24.173Z,12.38
2022-08-25T00:35:53.940Z,13.90
2022-08-25T00:38:23.126Z,14.07
2022-08-25T00:41:06.983Z,24.88
2022-08-25T00:43:52.870Z,12.65
2022-08-25T00:46:25.693Z,10.25
2022-08-25T00:49:00.647Z,9.38
2022-08-25T00:51:52.392Z,10.95
2022-08-25T00:54:30.208Z,7.47
2022-08-25T00:57:00.924Z,10.48
2022-08-25T00:59:31.703Z,8.80
2022-08-25T01:02:01.605Z,10.45
2022-08-25T01:04:32.157Z,10.68
2022-08-25T01:07:02.751Z,11.73
2022-08-25T01:09:33.695Z,10.60
2022-08-25T01:12:03.697Z,14.73
2022-08-25T01:14:34.189Z,10.88
2022-08-25T01:17:03.487Z,15.80
2022-08-25T01:19:36.058Z,13.15
2022-08-25T01:22:05.372Z,12.93
2022-08-25T01:24:59.764Z,15.20
2022-08-25T01:27:28.875Z,13.95
2022-08-25T01:29:59.224Z,11.63
2022-08-25T01:32:28.393Z,11.07
2022-08-25T01:34:57.536Z,7.85
2022-08-25T01:37:26.617Z,10.50
2022-08-25T01:39:58.891Z,9.77
2022-08-25T01:42:39.688Z,10.45
2022-08-25T01:45:09.591Z,9.38
2022-08-25T01:47:39.611Z,9.20
2022-08-25T01:50:09.532Z,10.60
2022-08-25T01:53:12.522Z,7.93
2022-08-25T01:55:54.196Z,6.75
2022-08-25T01:58:31.915Z,7.70
2022-08-25T02:01:03.610Z,7.88
2022-08-25T02:03:33.368Z,11.20
2022-08-25T02:06:04.236Z,11.02
2022-08-25T02:08:35.041Z,10.27
2022-08-25T02:11:04.559Z,14.23
2022-08-25T02:13:33.895Z,17.02
2022-08-25T02:16:03.457Z,19.35
2022-08-25T02:18:32.604Z,14.80
2022-08-25T02:21:01.769Z,20.73
2022-08-25T02:23:30.983Z,12.23
2022-08-25T02:26:00.036Z,25.38
2022-08-25T02:28:29.183Z,23.67
2022-08-25T02:31:01.235Z,18.58
2022-08-25T02:33:30.947Z,14.27
2022-08-25T02:36:02.359Z,15.32
2022-08-25T02:38:31.943Z,26.08
2022-08-25T02:41:02.200Z,26.63
2022-08-25T02:43:31.470Z,25.08
2022-08-25T02:46:00.950Z,20.88
2022-08-25T02:48:30.081Z,32.75
2022-08-25T02:51:02.217Z,16.85
2022-08-25T02:53:31.727Z,25.67
2022-08-25T02:56:01.230Z,24.48
2022-08-25T02:58:30.367Z,26.52
2022-08-25T03:00:59.562Z,21.33
2022-08-25T03:03:29.484Z,26.80
2022-08-25T03:05:58.889Z,19.73
2022-08-25T03:08:28.461Z,12.43
2022-08-25T03:10:57.570Z,14.52
2022-08-25T03:13:26.671Z,16.52
2022-08-25T03:15:55.664Z,27.58
2022-08-25T03:18:25.217Z,28.42
2022-08-25T03:20:54.658Z,13.68
2022-08-25T03:23:24.123Z,28.48
2022-08-25T03:26:13.263Z,24.77
2022-08-25T03:28:42.788Z,29.55
2022-08-25T03:31:12.279Z,12.77
2022-08-25T03:33:41.413Z,20.73
2022-08-25T03:36:13.158Z,21.00
2022-08-25T03:38:43.104Z,66.72
2022-08-25T03:41:22.565Z,33.85
2022-08-25T03:43:52.516Z,89.00
2022-08-25T03:46:28.491Z,29.63
2022-08-25T03:48:58.211Z,33.75
2022-08-25T03:51:39.248Z,20.13
2022-08-25T03:54:09.279Z,8.90
2022-08-25T03:56:39.466Z,8.23
2022-08-25T03:59:11.653Z,10.13
2022-08-25T04:01:42.649Z,9.10
2022-08-25T04:04:14.185Z,7.95
2022-08-25T04:06:44.603Z,7.65
2022-08-25T04:09:14.424Z,8.48
2022-08-25T04:11:43.553Z,14.10
2022-08-25T04:14:15.853Z,8.95
2022-08-25T04:16:47.011Z,8.50
2022-08-25T04:19:17.201Z,10.82
2022-08-25T04:21:46.626Z,8.18
2022-08-25T04:24:16.413Z,6.22
2022-08-25T04:26:49.095Z,9.35
2022-08-25T04:29:23.491Z,12.60
2022-08-25T04:31:54.549Z,11.43
2022-08-25T04:34:30.918Z,13.48
2022-08-25T04:37:07.446Z,9.93
2022-08-25T04:39:37.444Z,7.03
2022-08-25T04:42:07.284Z,7.90
2022-08-25T04:44:36.709Z,6.60
2022-08-25T04:47:06.288Z,6.53
2022-08-25T04:49:35.685Z,8.80
2022-08-25T04:52:05.384Z,7.65
2022-08-25T04:54:42.553Z,8.27
2022-08-25T04:57:12.593Z,17.45
2022-08-25T04:59:42.016Z,17.05
2022-08-25T05:02:14.652Z,28.27
2022-08-25T05:04:44.173Z,22.33
2022-08-25T05:07:13.522Z,21.02
2022-08-25T05:09:42.953Z,15.80
2022-08-25T05:12:12.399Z,16.77
2022-08-25T05:14:42.047Z,18.48
2022-08-25T05:17:11.622Z,12.18
2022-08-25T05:19:40.922Z,27.45
2022-08-25T05:22:10.118Z,23.45
2022-08-25T05:24:42.513Z,15.55
2022-08-25T05:27:11.580Z,16.70
2022-08-25T05:29:40.743Z,8.05
2022-08-25T05:32:15.206Z,10.55
2022-08-25T05:34:45.909Z,9.77
2022-08-25T05:37:15.258Z,13.23
2022-08-25T05:39:45.708Z,15.93
2022-08-25T05:42:15.056Z,11.95
2022-08-25T05:44:44.603Z,5.18
2022-08-25T05:47:17.035Z,10.88
2022-08-25T05:49:46.448Z,13.70
2022-08-25T05:52:20.066Z,8.07
2022-08-25T05:54:49.880Z,5.57
2022-08-25T05:57:19.243Z,6.78
2022-08-25T05:59:48.536Z,9.88
2022-08-25T06:02:35.942Z,13.05
2022-08-25T06:05:05.667Z,11.63
2022-08-25T06:07:34.986Z,7.22
2022-08-25T06:10:07.324Z,8.48
2022-08-25T06:12:37.410Z,17.35
2022-08-25T06:15:08.285Z,11.15
2022-08-25T06:17:41.865Z,15.27
2022-08-25T06:22:42.012Z,8.68
2022-08-25T06:25:14.154Z,10.07
2022-08-25T06:27:43.879Z,10.73
2022-08-25T06:30:17.989Z,8.88
2022-08-25T06:32:50.603Z,8.38
2022-08-25T06:35:21.341Z,16.23
2022-08-25T06:37:50.401Z,7.85
2022-08-25T06:40:19.604Z,17.83
2022-08-25T06:42:50.942Z,11.85
2022-08-25T06:45:20.088Z,8.07
2022-08-25T06:47:49.190Z,5.15
2022-08-25T06:50:24.570Z,4.20
2022-08-25T06:52:53.786Z,13.63
2022-08-25T06:55:22.925Z,3.88
2022-08-25T06:57:55.355Z,4.30
2022-08-25T07:00:30.271Z,7.10
2022-08-25T07:03:02.528Z,13.50
2022-08-25T07:05:43.551Z,8.70
2022-08-25T07:08:13.667Z,9.73
2022-08-25T07:10:42.762Z,6.30
2022-08-25T07:13:18.006Z,5.20
2022-08-25T07:15:47.179Z,4.00
2022-08-25T07:18:16.828Z,7.55
2022-08-25T07:20:45.932Z,6.93
2022-08-25T07:23:15.019Z,11.13
2022-08-25T07:25:44.140Z,11.32
2022-08-25T07:28:13.338Z,6.78
2022-08-25T07:30:42.545Z,4.90
2022-08-25T07:33:11.987Z,2.85
2022-08-25T07:35:43.774Z,5.53
2022-08-25T07:38:16.675Z,4.60
2022-08-25T07:40:57.094Z,3.65
2022-08-25T07:43:26.210Z,9.65
2022-08-25T07:45:55.966Z,6.97
2022-08-25T07:48:25.084Z,15.40
2022-08-25T07:50:54.191Z,4.10
2022-08-25T07:53:23.569Z,7.60
2022-08-25T07:55:53.584Z,4.88
2022-08-25T07:58:23.227Z,7.90
2022-08-25T08:00:54.292Z,9.60
2022-08-25T08:03:45.329Z,3.65
2022-08-25T08:06:21.330Z,7.60
2022-08-25T08:08:54.580Z,5.90
2022-08-25T08:11:30.329Z,5.47
2022-08-25T08:14:00.376Z,3.22
2022-08-25T08:16:31.441Z,7.03
2022-08-25T08:19:02.314Z,1.77
2022-08-25T08:21:34.706Z,3.13
2022-08-25T08:24:14.783Z,2.22
2022-08-25T08:26:58.724Z,2.83
2022-08-25T08:29:29.037Z,3.83
2022-08-25T08:31:58.151Z,2.42
2022-08-25T08:34:27.639Z,3.35
2022-08-25T08:36:56.827Z,3.20
2022-08-25T08:39:26.915Z,2.97
2022-08-25T08:42:37.460Z,3.65
2022-08-25T08:45:35.739Z,3.38
2022-08-25T08:48:13.015Z,3.75
2022-08-25T08:51:03.000Z,3.90
2022-08-25T08:54:06.496Z,4.40
2022-08-25T08:56:48.906Z,7.72
2022-08-25T08:59:33.541Z,2.58
2022-08-25T09:02:07.197Z,3.00
2022-08-25T09:05:02.354Z,2.03
2022-08-25T09:07:47.257Z,3.22
2022-08-25T09:10:18.680Z,5.85
2022-08-25T09:13:11.290Z,3.17
2022-08-25T09:16:34.810Z,2.97
2022-08-25T09:19:27.631Z,3.85
2022-08-25T09:22:33.928Z,4.50
2022-08-25T09:25:52.464Z,3.17
2022-08-25T09:28:52.956Z,5.28
2022-08-25T09:31:36.834Z,4.75
2022-08-25T09:34:51.321Z,5.03
2022-08-25T09:37:25.856Z,6.43
2022-08-25T09:39:54.931Z,6.32
2022-08-25T09:42:58.555Z,6.03
2022-08-25T09:45:51.871Z,8.05
2022-08-25T09:48:26.130Z,7.22
2022-08-25T09:54:36.295Z,9.40
2022-08-25T09:57:45.668Z,7.47
2022-08-25T10:00:25.849Z,10.48
2022-08-25T10:03:12.951Z,11.60
2022-08-25T10:06:05.997Z,10.73
2022-08-25T10:08:42.329Z,4.43
2022-08-25T10:11:16.984Z,6.32
2022-08-25T10:13:54.206Z,7.20
2022-08-25T10:16:36.117Z,8.25
2022-08-25T10:19:11.083Z,7.45
2022-08-25T10:21:46.525Z,6.97
2022-08-25T10:24:16.557Z,10.95
2022-08-25T10:27:12.275Z,11.55
2022-08-25T10:33:35.261Z,7.32
2022-08-25T10:36:32.141Z,10.15
2022-08-25T10:39:04.263Z,9.90
2022-08-25T10:42:05.448Z,9.38
2022-08-25T10:45:43.473Z,14.35
2022-08-25T10:48:33.517Z,8.27
2022-08-25T10:51:24.947Z,5.78
2022-08-25T10:54:09.640Z,6.05
2022-08-25T10:56:46.814Z,5.80
2022-08-25T10:59:22.645Z,6.75
2022-08-25T11:02:19.914Z,8.82
2022-08-25T11:05:24.514Z,6.53
2022-08-25T11:08:25.569Z,6.40
2022-08-25T11:11:12.869Z,10.27
2022-08-25T11:14:00.183Z,8.52
2022-08-25T11:16:48.454Z,7.10
2022-08-25T11:19:25.867Z,8.52
2022-08-25T11:22:16.111Z,7.55
2022-08-25T11:24:59.885Z,9.82
2022-08-25T11:27:43.172Z,7.78
2022-08-25T11:30:15.399Z,9.07
2022-08-25T11:32:52.105Z,11.95
2022-08-25T11:35:34.478Z,9.82
2022-08-25T11:38:03.612Z,8.40
2022-08-25T11:41:17.047Z,8.25
2022-08-25T11:44:50.112Z,11.68
2022-08-25T11:47:46.376Z,8.02
2022-08-25T11:50:36.451Z,11.07
2022-08-25T11:53:28.099Z,9.65
2022-08-25T11:56:03.948Z,11.45
2022-08-25T11:58:42.497Z,9.93
2022-08-25T12:01:47.063Z,10.32
2022-08-25T12:04:34.694Z,10.50
2022-08-25T12:07:18.594Z,10.48
2022-08-25T12:12:43.547Z,10.98
2022-08-25T12:15:35.898Z,12.88
2022-08-25T12:18:18.975Z,9.77
2022-08-25T12:20:59.996Z,12.23
2022-08-25T12:23:44.855Z,15.02
2022-08-25T12:26:28.920Z,10.75
2022-08-25T12:29:07.406Z,8.98
2022-08-25T12:32:09.442Z,7.93
2022-08-25T12:35:17.249Z,11.13
2022-08-25T12:38:06.657Z,8.82
2022-08-25T12:40:45.322Z,7.60
2022-08-25T12:43:37.349Z,6.80
2022-08-25T12:46:28.566Z,8.90
2022-08-25T12:49:04.947Z,12.15
2022-08-25T12:51:48.482Z,11.57
2022-08-25T12:54:39.212Z,10.77
2022-08-25T12:57:46.190Z,9.02
2022-08-25T13:03:28.550Z,4.10
2022-08-25T13:06:20.734Z,5.82
2022-08-25T13:09:02.692Z,4.68
2022-08-25T13:12:04.137Z,5.32
2022-08-25T13:14:44.009Z,5.00
2022-08-25T13:17:13.746Z,5.57
2022-08-25T13:19:42.845Z,4.78
2022-08-25T13:22:18.840Z,3.78
2022-08-25T13:24:51.627Z,5.00
2022-08-25T13:27:25.645Z,6.05
2022-08-25T13:32:35.968Z,7.38
2022-08-25T13:35:28.919Z,5.60
2022-08-25T13:38:20.965Z,4.25
2022-08-25T13:40:50.613Z,4.95
2022-08-25T13:43:22.407Z,8.57
2022-08-25T13:45:57.752Z,4.57
2022-08-25T13:48:49.271Z,7.90
2022-08-25T13:51:24.190Z,5.95
2022-08-25T13:54:04.255Z,5.63
2022-08-25T13:56:41.385Z,5.93
2022-08-25T13:59:33.133Z,6.93
2022-08-25T14:02:05.805Z,5.38
2022-08-25T14:04:51.448Z,5.55
2022-08-25T14:07:26.575Z,8.07
2022-08-25T14:10:33.335Z,7.88
2022-08-25T14:13:18.887Z,6.20
2022-08-25T14:15:48.357Z,8.25
2022-08-25T14:18:26.873Z,7.13
2022-08-25T14:20:58.429Z,8.93
2022-08-25T14:23:30.303Z,11.73
2022-08-25T14:26:00.705Z,14.88
2022-08-25T14:28:32.254Z,7.53
2022-08-25T14:31:05.136Z,5.97
2022-08-25T14:33:53.923Z,8.23
2022-08-25T14:36:23.335Z,5.57
2022-08-25T14:38:54.909Z,6.40
2022-08-25T14:41:25.560Z,5.07
2022-08-25T14:43:55.340Z,6.97
2022-08-25T14:46:29.470Z,5.20
2022-08-25T14:49:06.010Z,8.10
2022-08-25T14:51:37.158Z,4.75
2022-08-25T14:54:09.497Z,7.97
2022-08-25T14:59:12.512Z,7.13
2022-08-25T15:01:42.003Z,8.07
2022-08-25T15:04:23.200Z,7.82
2022-08-25T15:06:58.521Z,5.90
2022-08-25T15:09:29.456Z,7.72
2022-08-25T15:12:14.935Z,11.77
2022-08-25T15:14:49.605Z,7.45
2022-08-25T15:17:22.479Z,7.82
2022-08-25T15:19:52.031Z,8.52
2022-08-25T15:22:21.294Z,8.30
2022-08-25T15:24:55.358Z,9.18
2022-08-25T15:27:25.595Z,11.02
2022-08-25T15:29:59.965Z,9.18
2022-08-25T15:32:29.329Z,10.18
2022-08-25T15:34:58.780Z,12.63
2022-08-25T15:37:28.084Z,11.10
2022-08-25T15:39:57.864Z,12.43
2022-08-25T15:42:28.237Z,10.00
2022-08-25T15:44:57.343Z,10.25
2022-08-25T15:50:18.615Z,10.00
2022-08-25T15:52:48.810Z,12.15
2022-08-25T15:55:19.806Z,7.65
2022-08-25T15:57:49.856Z,11.43
2022-08-25T16:00:21.457Z,9.68
2022-08-25T16:02:50.916Z,8.82
2022-08-25T16:05:25.765Z,9.75
2022-08-25T16:07:55.311Z,10.43
2022-08-25T16:10:25.135Z,13.18
2022-08-25T16:12:54.422Z,7.53
2022-08-25T16:15:24.114Z,11.23
2022-08-25T16:17:59.885Z,13.52
2022-08-25T16:20:30.260Z,8.68
2022-08-25T16:23:01.867Z,8.65
2022-08-25T16:25:33.453Z,8.13
2022-08-25T16:28:06.491Z,9.48
2022-08-25T16:30:35.872Z,13.15
2022-08-25T16:33:05.451Z,9.57
2022-08-25T16:35:36.353Z,10.50
2022-08-25T16:38:10.057Z,7.95
2022-08-25T16:40:43.411Z,8.63
2022-08-25T16:43:13.708Z,7.82
2022-08-25T16:45:43.029Z,8.40
2022-08-25T16:48:12.339Z,9.70
2022-08-25T16:50:41.995Z,8.48
2022-08-25T16:53:29.128Z,7.88
2022-08-25T16:56:09.686Z,7.03
2022-08-25T16:58:40.995Z,8.30
2022-08-25T17:01:17.154Z,10.07
2022-08-25T17:03:47.208Z,6.07
2022-08-25T17:06:16.501Z,11.70
2022-08-25T17:08:46.549Z,8.35
2022-08-25T17:11:19.175Z,9.00
2022-08-25T17:13:52.180Z,8.13
2022-08-25T17:16:23.960Z,5.75
2022-08-25T17:18:54.347Z,4.43
2022-08-25T17:21:25.020Z,5.68
2022-08-25T17:23:56.480Z,6.05
2022-08-25T17:26:29.018Z,4.72
2022-08-25T17:29:02.437Z,9.40
2022-08-25T17:31:31.999Z,11.43
2022-08-25T17:34:03.557Z,4.15
2022-08-25T17:36:32.658Z,4.45
2022-08-25T17:39:01.687Z,5.85
2022-08-25T17:41:31.239Z,5.97
2022-08-25T17:44:00.570Z,2.80
2022-08-25T17:46:30.281Z,4.22
2022-08-25T17:49:00.037Z,4.25
2022-08-25T17:51:29.667Z,5.05
2022-08-25T17:54:01.366Z,7.25
2022-08-25T17:56:31.183Z,4.05
2022-08-25T17:59:00.442Z,4.57
2022-08-25T18:01:32.226Z,5.55
2022-08-25T18:04:01.926Z,7.03
2022-08-25T18:06:32.117Z,7.68
2022-08-25T18:09:02.731Z,6.38
2022-08-25T18:11:33.164Z,5.78
2022-08-25T18:14:03.136Z,7.53
2022-08-25T18:16:32.416Z,4.05
2022-08-25T18:19:03.658Z,6.85
2022-08-25T18:21:36.478Z,4.15
2022-08-25T18:24:06.101Z,4.25
2022-08-25T18:26:35.574Z,4.03
2022-08-25T18:29:05.254Z,2.92
2022-08-25T18:31:34.445Z,3.42
2022-08-25T18:34:06.129Z,6.63
2022-08-25T18:36:38.636Z,3.80
2022-08-25T18:39:28.747Z,4.83
2022-08-25T18:42:02.606Z,4.85
2022-08-25T18:44:32.930Z,4.10
2022-08-25T18:47:07.389Z,5.00
2022-08-25T18:49:38.183Z,3.35
2022-08-25T18:52:07.792Z,7.63
2022-08-25T18:54:36.897Z,4.00
2022-08-25T18:57:08.876Z,2.95
2022-08-25T18:59:38.672Z,4.53
2022-08-25T19:02:08.207Z,4.10
2022-08-25T19:04:38.009Z,2.80
2022-08-25T19:07:10.030Z,2.88
2022-08-25T19:09:39.742Z,3.45
2022-08-25T19:12:11.603Z,2.95
2022-08-25T19:14:43.676Z,5.45
2022-08-25T19:17:12.847Z,2.55
2022-08-25T19:19:42.184Z,4.63
2022-08-25T19:22:38.125Z,3.75
2022-08-25T19:25:02.570Z,2.42
2022-08-25T19:27:31.900Z,5.03
2022-08-25T19:30:02.547Z,4.03
2022-08-25T19:32:33.573Z,4.07
2022-08-25T19:35:03.706Z,4.40
2022-08-25T19:37:33.813Z,6.15
2022-08-25T19:40:03.403Z,3.22
2022-08-25T19:42:38.183Z,4.72
2022-08-25T19:45:11.319Z,9.18
2022-08-25T19:47:42.421Z,4.57
2022-08-25T19:50:16.679Z,3.05
2022-08-25T19:52:49.865Z,3.00
2022-08-25T19:55:20.878Z,5.10
2022-08-25T19:57:50.837Z,3.42
2022-08-25T20:00:31.624Z,3.72
2022-08-25T20:03:01.975Z,6.60
2022-08-25T20:05:32.225Z,7.47
2022-08-25T20:08:03.285Z,3.47
2022-08-25T20:10:37.806Z,5.05
2022-08-25T20:13:11.269Z,3.08
2022-08-25T20:15:41.904Z,3.88
2022-08-25T20:18:11.296Z,3.33
2022-08-25T20:20:40.606Z,2.85
2022-08-25T20:23:28.540Z,2.72
2022-08-25T20:25:58.160Z,3.95
2022-08-25T20:28:27.676Z,4.85
2022-08-25T20:30:57.482Z,3.97
2022-08-25T20:33:26.839Z,5.80
2022-08-25T20:35:56.696Z,4.80
2022-08-25T20:38:30.845Z,3.72
2022-08-25T20:41:01.837Z,4.65
2022-08-25T20:43:32.288Z,7.07
2022-08-25T20:46:03.421Z,4.57
2022-08-25T20:48:33.142Z,5.57
2022-08-25T20:51:08.601Z,6.63
2022-08-25T20:53:39.980Z,11.75
2022-08-25T20:56:12.588Z,7.97
2022-08-25T20:58:43.737Z,5.18
2022-08-25T21:01:22.950Z,5.13
2022-08-25T21:03:52.722Z,7.13
2022-08-25T21:06:21.805Z,4.93
2022-08-25T21:08:51.605Z,7.13
2022-08-25T21:11:22.367Z,7.93
2022-08-25T21:13:51.970Z,5.30
2022-08-25T21:16:21.112Z,6.32
2022-08-25T21:18:52.605Z,6.85
2022-08-25T21:21:21.938Z,4.95
2022-08-25T21:23:53.087Z,5.55
2022-08-25T21:26:28.896Z,6.30
2022-08-25T21:29:03.090Z,6.15
2022-08-25T21:31:33.932Z,7.82
2022-08-25T21:34:04.331Z,4.78
2022-08-25T21:36:34.605Z,3.67
2022-08-25T21:39:03.662Z,5.18
2022-08-25T21:41:36.860Z,3.63
2022-08-25T21:44:06.094Z,4.05
2022-08-25T21:46:36.506Z,4.10
2022-08-25T21:49:07.840Z,3.47
2022-08-25T21:51:44.357Z,7.07
2022-08-25T21:54:16.930Z,4.18
2022-08-25T21:56:53.117Z,5.15
2022-08-25T21:59:33.472Z,4.05
2022-08-25T22:02:06.464Z,4.70
2022-08-25T22:04:36.502Z,3.13
2022-08-25T22:07:05.859Z,2.63
2022-08-25T22:09:35.128Z,2.70
2022-08-25T22:12:04.654Z,3.22
2022-08-25T22:14:34.162Z,4.03
2022-08-25T22:17:05.283Z,2.85
2022-08-25T22:19:38.734Z,2.30
2022-08-25T22:22:08.074Z,3.85
2022-08-25T22:24:37.426Z,6.55
2022-08-25T22:27:15.588Z,6.28
2022-08-25T22:29:46.477Z,2.85
2022-08-25T22:32:15.926Z,3.40
2022-08-25T22:34:48.371Z,2.17
2022-08-25T22:37:19.050Z,3.47
2022-08-25T22:39:48.750Z,3.03
2022-08-25T22:42:18.230Z,2.25
2022-08-25T22:44:47.592Z,1.95
2022-08-25T22:47:16.960Z,7.43
2022-08-25T22:49:47.548Z,2.15
2022-08-25T22:52:17.504Z,3.08
2022-08-25T22:54:46.856Z,3.33
2022-08-25T22:57:16.246Z,12.48
2022-08-25T22:59:48.167Z,3.45
2022-08-25T23:02:18.924Z,3.05
2022-08-25T23:04:49.014Z,10.85
2022-08-25T23:07:21.473Z,3.15
2022-08-25T23:09:50.803Z,4.60
2022-08-25T23:12:20.263Z,3.33
2022-08-25T23:14:52.161Z,2.65
2022-08-25T23:17:21.600Z,2.60
2022-08-25T23:19:50.942Z,3.08
2022-08-25T23:22:20.564Z,3.95
2022-08-25T23:24:55.066Z,2.35
2022-08-25T23:27:24.192Z,3.60
2022-08-25T23:29:53.613Z,7.22
2022-08-25T23:32:22.724Z,3.42
2022-08-25T23:34:57.053Z,3.25
2022-08-25T23:37:26.122Z,4.28
2022-08-25T23:39:55.712Z,4.63
2022-08-25T23:42:24.784Z,5.63
2022-08-25T23:44:53.954Z,3.92
2022-08-25T23:47:23.054Z,2.95
2022-08-25T23:49:52.114Z,4.63
2022-08-25T23:52:21.543Z,2.20
2022-08-25T23:54:50.629Z,4.68
2022-08-25T23:57:19.704Z,3.47
2022-08-25T23:59:48.920Z,4.03
